sensor_id;sensor_type;location;lat;lon;timestamp;pressure;altitude;pressure_sealevel;temperature;humidity
26711;BME280;18311;52.754;18.118;2023-02-03T11:46:22;99536.11;;;12.36;100.00
26711;BME280;18311;52.754;18.118;2023-02-03T11:49:03;99509.46;;;12.60;74.27
26711;BME280;18311;52.754;18.118;2023-02-03T11:51:44;99498.19;;;12.55;80.81
26711;BME280;18311;52.754;18.118;2023-02-03T11:57:27;99464.62;;;17.53;59.25
26711;BME280;18311;52.754;18.118;2023-02-03T12:03:08;99457.42;;;14.37;60.56
26711;BME280;18311;52.754;18.118;2023-02-03T12:05:52;99452.16;;;14.00;60.25
26711;BME280;18311;52.754;18.118;2023-02-03T12:12:09;99420.13;;;14.79;56.16
26711;BME280;18311;52.754;18.118;2023-02-03T12:16:47;99401.31;;;15.67;54.91
26711;BME280;18311;52.754;18.118;2023-02-03T12:28:08;99380.85;;;15.10;54.96
26711;BME280;18311;52.754;18.118;2023-02-03T12:30:42;99377.35;;;13.93;56.32
26711;BME280;18311;52.754;18.118;2023-02-03T12:33:25;99364.19;;;15.16;55.31
26711;BME280;18311;52.754;18.118;2023-02-03T12:36:03;99365.61;;;14.30;55.77
26711;BME280;18311;52.754;18.118;2023-02-03T12:41:33;99357.62;;;14.98;55.69
26711;BME280;18311;52.754;18.118;2023-02-03T12:44:01;99344.25;;;15.07;56.09
26711;BME280;18311;52.754;18.118;2023-02-03T12:58:04;99328.52;;;14.00;61.18
26711;BME280;18311;52.754;18.118;2023-02-03T13:03:48;99316.94;;;14.22;60.84
26711;BME280;18311;52.754;18.118;2023-02-03T13:06:31;99300.84;;;19.67;45.08
26711;BME280;18311;52.754;18.118;2023-02-03T13:14:35;99289.71;;;16.33;50.51
26711;BME280;18311;52.754;18.118;2023-02-03T13:17:21;99251.81;;;16.75;51.29
26711;BME280;18311;52.754;18.118;2023-02-03T13:19:51;99273.98;;;16.08;54.04
26711;BME280;18311;52.754;18.118;2023-02-03T13:22:24;99264.20;;;17.87;49.08
26711;BME280;18311;52.754;18.118;2023-02-03T13:25:06;99264.20;;;17.67;47.40
26711;BME280;18311;52.754;18.118;2023-02-03T13:28:05;99257.20;;;18.04;47.32
26711;BME280;18311;52.754;18.118;2023-02-03T13:42:20;99258.80;;;16.78;50.54
26711;BME280;18311;52.754;18.118;2023-02-03T13:44:54;99270.88;;;15.91;52.77
26711;BME280;18311;52.754;18.118;2023-02-03T13:47:29;99264.19;;;17.58;49.52
26711;BME280;18311;52.754;18.118;2023-02-03T13:50:03;99265.47;;;17.92;49.70
26711;BME280;18311;52.754;18.118;2023-02-03T13:52:45;99261.61;;;18.80;48.00
26711;BME280;18311;52.754;18.118;2023-02-03T13:55:28;99259.52;;;17.60;48.80
26711;BME280;18311;52.754;18.118;2023-02-03T13:58:01;99261.63;;;17.27;49.30
26711;BME280;18311;52.754;18.118;2023-02-03T14:05:59;99253.33;;;18.16;47.03
26711;BME280;18311;52.754;18.118;2023-02-03T14:16:41;99242.70;;;18.42;48.70
26711;BME280;18311;52.754;18.118;2023-02-03T14:21:57;99248.05;;;18.24;49.03
26711;BME280;18311;52.754;18.118;2023-02-03T14:24:44;99242.45;;;18.26;49.97
26711;BME280;18311;52.754;18.118;2023-02-03T14:27:18;99246.67;;;17.81;49.32
26711;BME280;18311;52.754;18.118;2023-02-03T14:30:17;99248.50;;;18.85;48.21
26711;BME280;18311;52.754;18.118;2023-02-03T14:32:50;99251.27;;;19.03;47.10
26711;BME280;18311;52.754;18.118;2023-02-03T14:35:30;99249.94;;;19.07;47.46
26711;BME280;18311;52.754;18.118;2023-02-03T14:38:09;99252.73;;;18.22;49.00
26711;BME280;18311;52.754;18.118;2023-02-03T14:40:55;99260.85;;;16.24;53.76
26711;BME280;18311;52.754;18.118;2023-02-03T14:43:36;99245.83;;;17.61;54.19
26711;BME280;18311;52.754;18.118;2023-02-03T14:51:59;99274.41;;;16.13;54.96
26711;BME280;18311;52.754;18.118;2023-02-03T14:57:40;99272.58;;;17.45;58.00
26711;BME280;18311;52.754;18.118;2023-02-03T15:05:48;99282.34;;;16.66;59.64
26711;BME280;18311;52.754;18.118;2023-02-03T15:08:35;99281.48;;;16.35;60.57
26711;BME280;18311;52.754;18.118;2023-02-03T15:11:30;99273.84;;;16.71;61.49
26711;BME280;18311;52.754;18.118;2023-02-03T15:14:18;99279.55;;;16.77;58.05
26711;BME280;18311;52.754;18.118;2023-02-03T15:16:58;99298.55;;;15.93;61.52
26711;BME280;18311;52.754;18.118;2023-02-03T15:19:34;99291.20;;;17.38;59.27
26711;BME280;18311;52.754;18.118;2023-02-03T15:22:26;99305.30;;;17.32;57.00
26711;BME280;18311;52.754;18.118;2023-02-03T15:25:00;99316.23;;;16.28;59.05
26711;BME280;18311;52.754;18.118;2023-02-03T15:27:33;99325.45;;;16.77;58.21
26711;BME280;18311;52.754;18.118;2023-02-03T15:30:24;99308.95;;;16.80;60.50
26711;BME280;18311;52.754;18.118;2023-02-03T15:33:04;99307.66;;;17.15;56.90
26711;BME280;18311;52.754;18.118;2023-02-03T15:35:38;99312.95;;;17.36;54.80
26711;BME280;18311;52.754;18.118;2023-02-03T15:38:12;99304.88;;;17.46;55.26
26711;BME280;18311;52.754;18.118;2023-02-03T15:40:50;99307.87;;;17.53;66.45
26711;BME280;18311;52.754;18.118;2023-02-03T15:43:34;99320.62;;;16.50;62.49
26711;BME280;18311;52.754;18.118;2023-02-03T15:48:50;99322.24;;;17.83;57.97
26711;BME280;18311;52.754;18.118;2023-02-03T15:51:30;99345.55;;;16.94;59.92
26711;BME280;18311;52.754;18.118;2023-02-03T15:54:02;99334.48;;;16.97;57.93
26711;BME280;18311;52.754;18.118;2023-02-03T15:59:31;99339.17;;;16.95;58.84
26711;BME280;18311;52.754;18.118;2023-02-03T16:04:43;99344.50;;;17.16;56.61
26711;BME280;18311;52.754;18.118;2023-02-03T16:07:25;99339.27;;;17.25;56.09
26711;BME280;18311;52.754;18.118;2023-02-03T16:09:58;99341.08;;;17.14;53.85
26711;BME280;18311;52.754;18.118;2023-02-03T16:12:32;99353.95;;;17.51;53.76
26711;BME280;18311;52.754;18.118;2023-02-03T16:15:19;99354.00;;;17.90;54.17
26711;BME280;18311;52.754;18.118;2023-02-03T16:17:36;99355.23;;;17.57;53.66
26711;BME280;18311;52.754;18.118;2023-02-03T16:25:33;99374.66;;;17.22;54.17
26711;BME280;18311;52.754;18.118;2023-02-03T16:28:15;99376.03;;;17.76;53.72
26711;BME280;18311;52.754;18.118;2023-02-03T16:31:10;99374.72;;;18.48;51.24
26711;BME280;18311;52.754;18.118;2023-02-03T16:34:01;99381.57;;;18.43;50.31
26711;BME280;18311;52.754;18.118;2023-02-03T16:36:50;99393.23;;;17.75;50.95
26711;BME280;18311;52.754;18.118;2023-02-03T16:39:38;99402.55;;;18.21;50.74
26711;BME280;18311;52.754;18.118;2023-02-03T16:42:35;99409.95;;;17.30;53.41
26711;BME280;18311;52.754;18.118;2023-02-03T16:45:18;99419.83;;;17.70;50.60
26711;BME280;18311;52.754;18.118;2023-02-03T16:48:11;99424.88;;;18.53;49.09
26711;BME280;18311;52.754;18.118;2023-02-03T16:50:58;99417.69;;;18.71;48.59
26711;BME280;18311;52.754;18.118;2023-02-03T16:53:31;99428.20;;;17.47;51.96
26711;BME280;18311;52.754;18.118;2023-02-03T16:56:03;99422.70;;;17.78;51.00
26711;BME280;18311;52.754;18.118;2023-02-03T16:58:34;99440.55;;;18.10;51.31
26711;BME280;18311;52.754;18.118;2023-02-03T17:01:05;99428.49;;;17.13;52.91
26711;BME280;18311;52.754;18.118;2023-02-03T17:03:38;99440.08;;;17.35;54.09
26711;BME280;18311;52.754;18.118;2023-02-03T17:06:10;99445.00;;;17.61;52.06
26711;BME280;18311;52.754;18.118;2023-02-03T17:08:41;99431.63;;;17.59;53.54
26711;BME280;18311;52.754;18.118;2023-02-03T17:11:18;99435.70;;;18.14;51.59
26711;BME280;18311;52.754;18.118;2023-02-03T17:13:49;99448.44;;;17.22;54.97
26711;BME280;18311;52.754;18.118;2023-02-03T17:16:22;99460.69;;;17.67;53.90
26711;BME280;18311;52.754;18.118;2023-02-03T17:18:53;99440.25;;;17.03;54.67
26711;BME280;18311;52.754;18.118;2023-02-03T17:21:26;99455.06;;;17.99;53.70
26711;BME280;18311;52.754;18.118;2023-02-03T17:23:58;99456.08;;;18.37;52.14
26711;BME280;18311;52.754;18.118;2023-02-03T17:26:30;99469.47;;;17.59;54.21
26711;BME280;18311;52.754;18.118;2023-02-03T17:29:03;99467.16;;;18.05;52.17
26711;BME280;18311;52.754;18.118;2023-02-03T17:31:34;99471.30;;;17.89;52.96
26711;BME280;18311;52.754;18.118;2023-02-03T17:34:04;99476.59;;;18.10;51.94
26711;BME280;18311;52.754;18.118;2023-02-03T17:36:35;99477.38;;;17.41;53.48
26711;BME280;18311;52.754;18.118;2023-02-03T17:39:05;99484.70;;;17.60;52.79
26711;BME280;18311;52.754;18.118;2023-02-03T17:41:53;99476.66;;;17.39;54.26
26711;BME280;18311;52.754;18.118;2023-02-03T17:44:41;99475.13;;;17.46;52.72
26711;BME280;18311;52.754;18.118;2023-02-03T17:47:29;99486.94;;;17.14;54.44
26711;BME280;18311;52.754;18.118;2023-02-03T17:50:18;99487.81;;;17.55;53.12
26711;BME280;18311;52.754;18.118;2023-02-03T17:53:06;99501.20;;;18.07;51.24
26711;BME280;18311;52.754;18.118;2023-02-03T17:55:37;99491.08;;;17.49;53.26
26711;BME280;18311;52.754;18.118;2023-02-03T17:58:08;99504.00;;;17.15;53.97
26711;BME280;18311;52.754;18.118;2023-02-03T18:00:38;99487.53;;;18.67;49.83
26711;BME280;18311;52.754;18.118;2023-02-03T18:03:09;99495.00;;;17.35;52.38
26711;BME280;18311;52.754;18.118;2023-02-03T18:05:51;99509.30;;;16.63;55.23
26711;BME280;18311;52.754;18.118;2023-02-03T18:08:26;99506.92;;;17.02;54.96
26711;BME280;18311;52.754;18.118;2023-02-03T18:10:55;99495.84;;;17.77;52.11
26711;BME280;18311;52.754;18.118;2023-02-03T18:13:28;99493.84;;;17.69;52.34
26711;BME280;18311;52.754;18.118;2023-02-03T18:16:00;99503.23;;;17.34;52.64
26711;BME280;18311;52.754;18.118;2023-02-03T18:18:30;99515.20;;;17.82;52.34
26711;BME280;18311;52.754;18.118;2023-02-03T18:21:06;99514.32;;;17.71;53.13
26711;BME280;18311;52.754;18.118;2023-02-03T18:23:37;99512.18;;;17.65;52.15
26711;BME280;18311;52.754;18.118;2023-02-03T18:26:10;99517.89;;;18.52;50.98
26711;BME280;18311;52.754;18.118;2023-02-03T18:28:41;99517.53;;;17.55;51.10
26711;BME280;18311;52.754;18.118;2023-02-03T18:31:18;99515.02;;;17.64;52.07
26711;BME280;18311;52.754;18.118;2023-02-03T18:33:46;99522.34;;;16.79;53.70
26711;BME280;18311;52.754;18.118;2023-02-03T18:36:18;99514.95;;;17.44;51.77
26711;BME280;18311;52.754;18.118;2023-02-03T18:38:48;99516.94;;;17.42;53.28
26711;BME280;18311;52.754;18.118;2023-02-03T18:41:21;99505.53;;;17.79;51.91
26711;BME280;18311;52.754;18.118;2023-02-03T18:43:53;99511.33;;;18.64;49.47
26711;BME280;18311;52.754;18.118;2023-02-03T18:46:30;99508.36;;;18.47;49.79
26711;BME280;18311;52.754;18.118;2023-02-03T18:49:00;99534.23;;;17.30;52.91
26711;BME280;18311;52.754;18.118;2023-02-03T18:51:30;99538.06;;;17.99;51.79
26711;BME280;18311;52.754;18.118;2023-02-03T18:54:01;99532.92;;;17.96;52.49
26711;BME280;18311;52.754;18.118;2023-02-03T18:56:32;99531.42;;;18.32;50.42
26711;BME280;18311;52.754;18.118;2023-02-03T18:59:07;99534.41;;;18.29;50.64
26711;BME280;18311;52.754;18.118;2023-02-03T19:01:38;99542.10;;;18.43;49.28
26711;BME280;18311;52.754;18.118;2023-02-03T19:04:09;99561.60;;;18.18;49.74
26711;BME280;18311;52.754;18.118;2023-02-03T19:06:40;99538.27;;;18.46;50.33
26711;BME280;18311;52.754;18.118;2023-02-03T19:09:13;99531.27;;;18.14;49.93
26711;BME280;18311;52.754;18.118;2023-02-03T19:11:46;99543.55;;;18.77;47.98
26711;BME280;18311;52.754;18.118;2023-02-03T19:14:17;99544.81;;;18.34;48.28
26711;BME280;18311;52.754;18.118;2023-02-03T19:16:48;99539.41;;;18.53;47.55
26711;BME280;18311;52.754;18.118;2023-02-03T19:19:20;99542.95;;;18.34;48.08
26711;BME280;18311;52.754;18.118;2023-02-03T19:21:51;99536.81;;;18.13;49.09
26711;BME280;18311;52.754;18.118;2023-02-03T19:24:21;99531.84;;;18.27;48.42
26711;BME280;18311;52.754;18.118;2023-02-03T19:26:53;99542.45;;;18.00;48.67
26711;BME280;18311;52.754;18.118;2023-02-03T19:29:24;99547.21;;;17.15;50.82
26711;BME280;18311;52.754;18.118;2023-02-03T19:31:57;99532.38;;;18.02;48.54
26711;BME280;18311;52.754;18.118;2023-02-03T19:34:29;99549.77;;;17.68;50.06
26711;BME280;18311;52.754;18.118;2023-02-03T19:37:01;99558.50;;;18.52;46.55
26711;BME280;18311;52.754;18.118;2023-02-03T19:39:32;99566.00;;;18.09;47.55
26711;BME280;18311;52.754;18.118;2023-02-03T19:42:02;99571.98;;;18.22;47.36
26711;BME280;18311;52.754;18.118;2023-02-03T19:44:34;99578.30;;;17.30;48.20
26711;BME280;18311;52.754;18.118;2023-02-03T19:47:05;99572.02;;;18.32;47.75
26711;BME280;18311;52.754;18.118;2023-02-03T19:49:35;99574.87;;;18.69;45.52
26711;BME280;18311;52.754;18.118;2023-02-03T19:52:07;99574.86;;;18.21;46.52
26711;BME280;18311;52.754;18.118;2023-02-03T19:54:38;99577.21;;;17.95;46.74
26711;BME280;18311;52.754;18.118;2023-02-03T19:57:09;99574.89;;;18.60;45.65
26711;BME280;18311;52.754;18.118;2023-02-03T19:59:39;99578.03;;;18.65;45.46
26711;BME280;18311;52.754;18.118;2023-02-03T20:02:10;99580.44;;;18.39;46.35
26711;BME280;18311;52.754;18.118;2023-02-03T20:04:43;99588.91;;;17.74;47.00
26711;BME280;18311;52.754;18.118;2023-02-03T20:07:13;99588.66;;;18.27;45.81
26711;BME280;18311;52.754;18.118;2023-02-03T20:09:46;99589.20;;;18.11;45.76
26711;BME280;18311;52.754;18.118;2023-02-03T20:12:16;99595.11;;;17.86;46.56
26711;BME280;18311;52.754;18.118;2023-02-03T20:14:47;99591.50;;;18.16;46.36
26711;BME280;18311;52.754;18.118;2023-02-03T20:17:17;99600.94;;;17.91;46.55
26711;BME280;18311;52.754;18.118;2023-02-03T20:19:48;99598.97;;;18.53;45.85
26711;BME280;18311;52.754;18.118;2023-02-03T20:22:18;99599.70;;;18.05;46.12
26711;BME280;18311;52.754;18.118;2023-02-03T20:24:49;99592.78;;;18.12;45.83
26711;BME280;18311;52.754;18.118;2023-02-03T20:27:19;99594.16;;;18.06;46.02
26711;BME280;18311;52.754;18.118;2023-02-03T20:29:50;99592.24;;;18.28;46.70
26711;BME280;18311;52.754;18.118;2023-02-03T20:32:23;99599.83;;;17.93;45.94
26711;BME280;18311;52.754;18.118;2023-02-03T20:34:54;99597.11;;;18.44;45.37
26711;BME280;18311;52.754;18.118;2023-02-03T20:37:24;99600.11;;;18.80;44.72
26711;BME280;18311;52.754;18.118;2023-02-03T20:39:55;99589.81;;;18.25;44.96
26711;BME280;18311;52.754;18.118;2023-02-03T20:42:25;99596.26;;;18.53;45.00
26711;BME280;18311;52.754;18.118;2023-02-03T20:44:57;99594.81;;;18.29;45.34
26711;BME280;18311;52.754;18.118;2023-02-03T20:47:29;99597.24;;;18.52;44.43
26711;BME280;18311;52.754;18.118;2023-02-03T20:49:59;99591.59;;;18.05;45.75
26711;BME280;18311;52.754;18.118;2023-02-03T20:52:30;99592.08;;;18.20;45.30
26711;BME280;18311;52.754;18.118;2023-02-03T20:55:04;99600.61;;;17.53;47.40
26711;BME280;18311;52.754;18.118;2023-02-03T20:57:33;99608.70;;;18.05;46.11
26711;BME280;18311;52.754;18.118;2023-02-03T21:00:25;99598.77;;;18.16;46.10
26711;BME280;18311;52.754;18.118;2023-02-03T21:02:51;99603.29;;;18.05;45.61
26711;BME280;18311;52.754;18.118;2023-02-03T21:05:41;99608.62;;;18.36;45.98
26711;BME280;18311;52.754;18.118;2023-02-03T21:08:17;99610.06;;;18.50;45.05
26711;BME280;18311;52.754;18.118;2023-02-03T21:10:48;99618.73;;;18.34;45.87
26711;BME280;18311;52.754;18.118;2023-02-03T21:13:32;99623.18;;;17.22;48.56
26711;BME280;18311;52.754;18.118;2023-02-03T21:15:57;99624.08;;;17.84;46.94
26711;BME280;18311;52.754;18.118;2023-02-03T21:18:32;99621.97;;;18.18;46.06
26711;BME280;18311;52.754;18.118;2023-02-03T21:21:26;99622.59;;;18.41;45.91
26711;BME280;18311;52.754;18.118;2023-02-03T21:23:48;99625.08;;;18.14;46.20
26711;BME280;18311;52.754;18.118;2023-02-03T21:26:24;99632.59;;;18.00;45.74
26711;BME280;18311;52.754;18.118;2023-02-03T21:28:58;99624.86;;;18.36;45.32
26711;BME280;18311;52.754;18.118;2023-02-03T21:31:33;99616.36;;;18.60;44.87
26711;BME280;18311;52.754;18.118;2023-02-03T21:37:00;99624.34;;;18.62;45.05
26711;BME280;18311;52.754;18.118;2023-02-03T21:39:31;99625.95;;;18.14;45.64
26711;BME280;18311;52.754;18.118;2023-02-03T21:42:16;99628.00;;;18.41;45.63
26711;BME280;18311;52.754;18.118;2023-02-03T21:44:37;99634.80;;;18.26;46.24
26711;BME280;18311;52.754;18.118;2023-02-03T21:47:24;99639.94;;;18.29;45.78
26711;BME280;18311;52.754;18.118;2023-02-03T21:49:41;99646.81;;;18.43;45.64
26711;BME280;18311;52.754;18.118;2023-02-03T21:52:14;99657.09;;;17.78;46.53
26711;BME280;18311;52.754;18.118;2023-02-03T21:54:46;99663.77;;;18.45;45.27
26711;BME280;18311;52.754;18.118;2023-02-03T21:57:18;99673.00;;;17.29;46.41
26711;BME280;18311;52.754;18.118;2023-02-03T21:59:52;99693.41;;;16.89;46.16
26711;BME280;18311;52.754;18.118;2023-02-03T22:05:11;99719.52;;;16.11;45.09
26711;BME280;18311;52.754;18.118;2023-02-03T22:07:39;99727.73;;;16.10;47.11
26711;BME280;18311;52.754;18.118;2023-02-03T22:10:09;99742.20;;;16.42;46.68
26711;BME280;18311;52.754;18.118;2023-02-03T22:12:40;99752.45;;;15.57;46.98
26711;BME280;18311;52.754;18.118;2023-02-03T22:15:11;99765.45;;;15.87;46.08
26711;BME280;18311;52.754;18.118;2023-02-03T22:17:41;99773.81;;;16.18;46.01
26711;BME280;18311;52.754;18.118;2023-02-03T22:20:12;99786.72;;;16.48;46.15
26711;BME280;18311;52.754;18.118;2023-02-03T22:22:43;99799.94;;;16.17;45.54
26711;BME280;18311;52.754;18.118;2023-02-03T22:25:13;99800.50;;;15.87;46.26
26711;BME280;18311;52.754;18.118;2023-02-03T22:27:44;99813.53;;;16.04;45.75
26711;BME280;18311;52.754;18.118;2023-02-03T22:30:16;99818.35;;;15.28;46.53
26711;BME280;18311;52.754;18.118;2023-02-03T22:32:46;99836.17;;;13.91;48.15
26711;BME280;18311;52.754;18.118;2023-02-03T22:35:18;99857.38;;;14.34;53.56
26711;BME280;18311;52.754;18.118;2023-02-03T22:37:50;99860.38;;;15.79;53.78
26711;BME280;18311;52.754;18.118;2023-02-03T22:40:24;99873.53;;;14.47;52.54
26711;BME280;18311;52.754;18.118;2023-02-03T22:42:55;99878.58;;;14.39;52.10
26711;BME280;18311;52.754;18.118;2023-02-03T22:45:27;99888.80;;;14.98;51.60
26711;BME280;18311;52.754;18.118;2023-02-03T22:47:58;99896.20;;;15.07;52.76
26711;BME280;18311;52.754;18.118;2023-02-03T22:50:29;99914.94;;;14.19;61.68
26711;BME280;18311;52.754;18.118;2023-02-03T22:53:01;99930.97;;;14.21;53.31
26711;BME280;18311;52.754;18.118;2023-02-03T22:55:32;99933.39;;;13.98;52.74
26711;BME280;18311;52.754;18.118;2023-02-03T22:58:04;99947.92;;;14.74;55.39
26711;BME280;18311;52.754;18.118;2023-02-03T23:00:35;99961.25;;;14.10;57.92
26711;BME280;18311;52.754;18.118;2023-02-03T23:03:06;99974.22;;;13.49;54.77
26711;BME280;18311;52.754;18.118;2023-02-03T23:05:37;99981.56;;;13.74;54.31
26711;BME280;18311;52.754;18.118;2023-02-03T23:08:07;99998.78;;;14.51;51.99
26711;BME280;18311;52.754;18.118;2023-02-03T23:10:38;100009.62;;;15.65;46.48
26711;BME280;18311;52.754;18.118;2023-02-03T23:13:09;100023.09;;;14.50;49.25
26711;BME280;18311;52.754;18.118;2023-02-03T23:15:39;100036.32;;;15.06;49.68
26711;BME280;18311;52.754;18.118;2023-02-03T23:18:10;100025.27;;;13.34;52.76
26711;BME280;18311;52.754;18.118;2023-02-03T23:20:41;100038.68;;;25.16;34.05
26711;BME280;18311;52.754;18.118;2023-02-03T23:23:13;100050.58;;;21.78;36.08
26711;BME280;18311;52.754;18.118;2023-02-03T23:25:43;100066.89;;;19.32;38.70
26711;BME280;18311;52.754;18.118;2023-02-03T23:28:14;100103.21;;;14.32;47.11
26711;BME280;18311;52.754;18.118;2023-02-03T23:30:45;100100.86;;;14.13;49.61
26711;BME280;18311;52.754;18.118;2023-02-03T23:33:15;100104.69;;;14.50;51.01
26711;BME280;18311;52.754;18.118;2023-02-03T23:35:46;100124.92;;;12.07;53.89
26711;BME280;18311;52.754;18.118;2023-02-03T23:38:19;100135.47;;;13.33;58.91
26711;BME280;18311;52.754;18.118;2023-02-03T23:40:51;100153.27;;;11.62;66.39
26711;BME280;18311;52.754;18.118;2023-02-03T23:43:24;100171.63;;;11.01;86.31
26711;BME280;18311;52.754;18.118;2023-02-03T23:45:55;100180.11;;;11.78;86.46
26711;BME280;18311;52.754;18.118;2023-02-03T23:48:26;100183.11;;;11.21;72.01
26711;BME280;18311;52.754;18.118;2023-02-03T23:50:56;100209.09;;;11.19;76.20
26711;BME280;18311;52.754;18.118;2023-02-03T23:53:28;100243.67;;;10.50;81.69
26711;BME280;18311;52.754;18.118;2023-02-03T23:56:00;100250.54;;;10.92;85.01
26711;BME280;18311;52.754;18.118;2023-02-03T23:58:30;100253.70;;;11.18;79.16
